sensor_id;sensor_type;location;lat;lon;timestamp;pressure;altitude;pressure_sealevel;temperature;humidity
35806;BME280;21925;44.608;11.580;2023-02-03T00:00:57;102530.59;;;9.77;63.24
35806;BME280;21925;44.608;11.580;2023-02-03T00:03:23;102486.34;;;9.83;63.97
35806;BME280;21925;44.608;11.580;2023-02-03T00:05:49;102486.72;;;9.63;63.10
35806;BME280;21925;44.608;11.580;2023-02-03T00:08:16;102474.25;;;9.02;62.80
35806;BME280;21925;44.608;11.580;2023-02-03T00:10:43;102521.16;;;8.21;66.78
35806;BME280;21925;44.608;11.580;2023-02-03T00:13:09;102493.78;;;8.26;67.60
35806;BME280;21925;44.608;11.580;2023-02-03T00:15:35;102506.72;;;8.67;65.98
35806;BME280;21925;44.608;11.580;2023-02-03T00:18:00;102516.63;;;8.81;65.47
35806;BME280;21925;44.608;11.580;2023-02-03T00:20:26;102507.06;;;9.02;63.96
35806;BME280;21925;44.608;11.580;2023-02-03T00:22:52;102503.97;;;9.27;62.73
35806;BME280;21925;44.608;11.580;2023-02-03T00:25:17;102518.94;;;8.93;63.00
35806;BME280;21925;44.608;11.580;2023-02-03T00:27:43;102513.38;;;8.33;64.31
35806;BME280;21925;44.608;11.580;2023-02-03T00:30:10;102499.59;;;8.66;63.91
35806;BME280;21925;44.608;11.580;2023-02-03T00:32:36;102514.22;;;8.98;63.02
35806;BME280;21925;44.608;11.580;2023-02-03T00:35:03;102515.19;;;8.89;62.11
35806;BME280;21925;44.608;11.580;2023-02-03T00:37:28;102514.97;;;9.04;62.32
35806;BME280;21925;44.608;11.580;2023-02-03T00:39:54;102528.03;;;8.88;62.48
35806;BME280;21925;44.608;11.580;2023-02-03T00:42:19;102528.84;;;9.31;61.85
35806;BME280;21925;44.608;11.580;2023-02-03T00:44:45;102512.09;;;9.32;63.99
35806;BME280;21925;44.608;11.580;2023-02-03T00:47:10;102538.47;;;9.28;64.72
35806;BME280;21925;44.608;11.580;2023-02-03T00:49:36;102527.66;;;9.18;65.39
35806;BME280;21925;44.608;11.580;2023-02-03T00:52:02;102550.72;;;9.12;65.06
35806;BME280;21925;44.608;11.580;2023-02-03T00:54:27;102547.47;;;9.10;64.56
35806;BME280;21925;44.608;11.580;2023-02-03T00:56:53;102529.41;;;9.28;65.26
35806;BME280;21925;44.608;11.580;2023-02-03T00:59:18;102536.97;;;9.17;64.14
35806;BME280;21925;44.608;11.580;2023-02-03T01:01:44;102541.34;;;8.25;66.09
35806;BME280;21925;44.608;11.580;2023-02-03T01:04:09;102530.91;;;7.65;67.71
35806;BME280;21925;44.608;11.580;2023-02-03T01:06:35;102529.88;;;7.56;70.67
35806;BME280;21925;44.608;11.580;2023-02-03T01:09:01;102528.19;;;7.65;69.07
35806;BME280;21925;44.608;11.580;2023-02-03T01:11:27;102531.63;;;7.42;70.20
35806;BME280;21925;44.608;11.580;2023-02-03T01:13:54;102540.63;;;7.76;69.11
35806;BME280;21925;44.608;11.580;2023-02-03T01:16:21;102532.84;;;7.93;67.73
35806;BME280;21925;44.608;11.580;2023-02-03T01:18:48;102536.16;;;7.18;68.35
35806;BME280;21925;44.608;11.580;2023-02-03T01:21:22;102538.09;;;7.08;69.03
35806;BME280;21925;44.608;11.580;2023-02-03T01:23:52;102548.94;;;7.18;71.69
35806;BME280;21925;44.608;11.580;2023-02-03T01:26:19;102549.16;;;7.31;70.99
35806;BME280;21925;44.608;11.580;2023-02-03T01:28:59;102549.69;;;7.72;69.14
35806;BME280;21925;44.608;11.580;2023-02-03T01:31:27;102546.25;;;7.94;67.41
35806;BME280;21925;44.608;11.580;2023-02-03T01:33:54;102553.94;;;8.49;65.66
35806;BME280;21925;44.608;11.580;2023-02-03T01:36:22;102570.47;;;8.63;64.62
35806;BME280;21925;44.608;11.580;2023-02-03T01:38:47;102567.84;;;8.24;64.91
35806;BME280;21925;44.608;11.580;2023-02-03T01:41:16;102583.66;;;7.94;67.29
35806;BME280;21925;44.608;11.580;2023-02-03T01:43:46;102565.91;;;8.30;67.91
35806;BME280;21925;44.608;11.580;2023-02-03T01:48:40;102570.72;;;8.38;68.14
35806;BME280;21925;44.608;11.580;2023-02-03T01:51:06;102567.38;;;8.46;67.31
35806;BME280;21925;44.608;11.580;2023-02-03T01:53:32;102571.16;;;8.50;66.65
35806;BME280;21925;44.608;11.580;2023-02-03T01:55:58;102584.09;;;8.39;67.02
35806;BME280;21925;44.608;11.580;2023-02-03T01:58:30;102602.06;;;8.17;67.50
35806;BME280;21925;44.608;11.580;2023-02-03T02:00:59;102581.75;;;8.28;67.40
35806;BME280;21925;44.608;11.580;2023-02-03T02:03:41;102582.91;;;8.22;67.07
35806;BME280;21925;44.608;11.580;2023-02-03T02:06:11;102574.06;;;7.96;67.45
35806;BME280;21925;44.608;11.580;2023-02-03T02:08:41;102555.47;;;7.98;67.85
35806;BME280;21925;44.608;11.580;2023-02-03T02:11:08;102568.75;;;8.10;67.76
35806;BME280;21925;44.608;11.580;2023-02-03T02:13:34;102574.72;;;8.22;67.53
35806;BME280;21925;44.608;11.580;2023-02-03T02:21:15;102590.69;;;8.05;68.01
35806;BME280;21925;44.608;11.580;2023-02-03T02:39:57;102578.34;;;7.74;68.21
35806;BME280;21925;44.608;11.580;2023-02-03T02:45:28;102580.00;;;7.75;68.09
35806;BME280;21925;44.608;11.580;2023-02-03T02:47:59;102593.06;;;7.78;67.92
35806;BME280;21925;44.608;11.580;2023-02-03T02:50:31;102584.94;;;7.68;67.73
35806;BME280;21925;44.608;11.580;2023-02-03T02:52:59;102595.09;;;7.58;67.96
35806;BME280;21925;44.608;11.580;2023-02-03T02:55:29;102581.84;;;7.36;68.29
35806;BME280;21925;44.608;11.580;2023-02-03T02:58:11;102576.59;;;7.55;68.53
35806;BME280;21925;44.608;11.580;2023-02-03T03:00:39;102560.88;;;7.32;68.50
35806;BME280;21925;44.608;11.580;2023-02-03T03:03:19;102586.34;;;7.17;69.87
35806;BME280;21925;44.608;11.580;2023-02-03T03:05:51;102572.97;;;7.21;69.73
35806;BME280;21925;44.608;11.580;2023-02-03T03:08:27;102570.19;;;7.26;69.40
35806;BME280;21925;44.608;11.580;2023-02-03T03:10:57;102572.19;;;7.11;69.52
35806;BME280;21925;44.608;11.580;2023-02-03T03:13:31;102574.38;;;7.04;70.46
35806;BME280;21925;44.608;11.580;2023-02-03T03:16:01;102570.56;;;7.05;70.94
35806;BME280;21925;44.608;11.580;2023-02-03T03:18:32;102581.78;;;6.93;70.92
35806;BME280;21925;44.608;11.580;2023-02-03T03:21:00;102585.53;;;7.12;70.12
35806;BME280;21925;44.608;11.580;2023-02-03T03:23:34;102606.25;;;7.18;69.56
35806;BME280;21925;44.608;11.580;2023-02-03T03:26:11;102610.34;;;7.15;69.47
35806;BME280;21925;44.608;11.580;2023-02-03T03:28:46;102611.75;;;7.03;69.51
35806;BME280;21925;44.608;11.580;2023-02-03T03:31:14;102620.25;;;6.92;69.39
35806;BME280;21925;44.608;11.580;2023-02-03T03:33:40;102622.41;;;6.95;69.34
35806;BME280;21925;44.608;11.580;2023-02-03T03:36:28;102631.44;;;6.95;69.20
35806;BME280;21925;44.608;11.580;2023-02-03T03:39:10;102634.69;;;6.92;69.24
35806;BME280;21925;44.608;11.580;2023-02-03T03:44:30;102633.41;;;6.70;70.89
35806;BME280;21925;44.608;11.580;2023-02-03T03:49:57;102628.47;;;5.67;73.61
35806;BME280;21925;44.608;11.580;2023-02-03T03:52:28;102645.69;;;5.88;75.50
35806;BME280;21925;44.608;11.580;2023-02-03T03:54:56;102628.00;;;5.95;73.72
35806;BME280;21925;44.608;11.580;2023-02-03T03:57:27;102644.06;;;6.27;72.67
35806;BME280;21925;44.608;11.580;2023-02-03T03:59:55;102660.16;;;6.43;71.57
35806;BME280;21925;44.608;11.580;2023-02-03T04:02:21;102660.16;;;6.43;70.94
35806;BME280;21925;44.608;11.580;2023-02-03T04:04:48;102665.31;;;6.10;72.80
35806;BME280;21925;44.608;11.580;2023-02-03T04:07:15;102663.66;;;6.19;72.67
35806;BME280;21925;44.608;11.580;2023-02-03T04:09:41;102670.59;;;4.94;81.39
35806;BME280;21925;44.608;11.580;2023-02-03T04:12:23;102660.66;;;5.85;78.88
35806;BME280;21925;44.608;11.580;2023-02-03T04:14:49;102664.47;;;5.89;76.82
35806;BME280;21925;44.608;11.580;2023-02-03T04:17:14;102666.94;;;6.01;75.88
35806;BME280;21925;44.608;11.580;2023-02-03T04:19:40;102650.84;;;5.99;75.59
35806;BME280;21925;44.608;11.580;2023-02-03T04:22:06;102657.13;;;5.95;75.83
35806;BME280;21925;44.608;11.580;2023-02-03T04:24:31;102664.50;;;6.09;74.64
35806;BME280;21925;44.608;11.580;2023-02-03T04:26:57;102641.06;;;5.98;74.14
35806;BME280;21925;44.608;11.580;2023-02-03T04:29:22;102659.50;;;5.71;75.13
35806;BME280;21925;44.608;11.580;2023-02-03T04:31:48;102648.41;;;5.88;74.37
35806;BME280;21925;44.608;11.580;2023-02-03T04:34:14;102637.78;;;5.86;73.91
35806;BME280;21925;44.608;11.580;2023-02-03T04:36:39;102645.16;;;5.91;73.99
35806;BME280;21925;44.608;11.580;2023-02-03T04:39:05;102653.88;;;5.93;73.74
35806;BME280;21925;44.608;11.580;2023-02-03T04:41:30;102650.03;;;5.89;73.39
35806;BME280;21925;44.608;11.580;2023-02-03T04:43:56;102640.50;;;5.81;73.35
35806;BME280;21925;44.608;11.580;2023-02-03T04:46:21;102658.47;;;5.92;73.11
35806;BME280;21925;44.608;11.580;2023-02-03T04:48:47;102651.94;;;5.83;72.63
35806;BME280;21925;44.608;11.580;2023-02-03T04:51:13;102681.81;;;5.63;73.35
35806;BME280;21925;44.608;11.580;2023-02-03T04:53:38;102677.25;;;5.18;76.81
35806;BME280;21925;44.608;11.580;2023-02-03T04:56:04;102671.06;;;5.27;78.18
35806;BME280;21925;44.608;11.580;2023-02-03T04:58:30;102672.16;;;5.31;78.17
35806;BME280;21925;44.608;11.580;2023-02-03T05:00:55;102685.53;;;4.91;79.97
35806;BME280;21925;44.608;11.580;2023-02-03T05:03:21;102678.06;;;4.67;82.09
35806;BME280;21925;44.608;11.580;2023-02-03T05:05:48;102675.38;;;4.77;81.96
35806;BME280;21925;44.608;11.580;2023-02-03T05:08:14;102655.19;;;5.14;78.75
35806;BME280;21925;44.608;11.580;2023-02-03T05:10:40;102676.50;;;4.81;78.10
35806;BME280;21925;44.608;11.580;2023-02-03T05:13:06;102658.50;;;4.34;82.07
35806;BME280;21925;44.608;11.580;2023-02-03T05:15:31;102661.59;;;3.85;83.29
35806;BME280;21925;44.608;11.580;2023-02-03T05:17:57;102678.88;;;4.05;85.33
35806;BME280;21925;44.608;11.580;2023-02-03T05:20:22;102657.94;;;4.00;86.58
35806;BME280;21925;44.608;11.580;2023-02-03T05:22:48;102655.63;;;3.61;88.28
35806;BME280;21925;44.608;11.580;2023-02-03T05:25:13;102680.94;;;3.67;87.49
35806;BME280;21925;44.608;11.580;2023-02-03T05:27:40;102667.25;;;3.57;89.42
35806;BME280;21925;44.608;11.580;2023-02-03T05:30:07;102665.25;;;4.00;87.01
35806;BME280;21925;44.608;11.580;2023-02-03T05:32:34;102655.56;;;4.40;84.27
35806;BME280;21925;44.608;11.580;2023-02-03T05:34:59;102653.69;;;4.09;81.77
35806;BME280;21925;44.608;11.580;2023-02-03T05:37:27;102664.47;;;4.04;85.08
35806;BME280;21925;44.608;11.580;2023-02-03T05:39:53;102655.88;;;4.49;81.75
35806;BME280;21925;44.608;11.580;2023-02-03T05:42:45;102663.31;;;4.58;79.86
35806;BME280;21925;44.608;11.580;2023-02-03T05:45:11;102618.03;;;4.32;78.52
35806;BME280;21925;44.608;11.580;2023-02-03T05:47:37;102644.72;;;4.45;78.41
35806;BME280;21925;44.608;11.580;2023-02-03T05:50:03;102637.75;;;4.54;77.64
35806;BME280;21925;44.608;11.580;2023-02-03T05:52:28;102666.69;;;4.75;76.60
35806;BME280;21925;44.608;11.580;2023-02-03T05:54:54;102660.34;;;4.65;76.58
35806;BME280;21925;44.608;11.580;2023-02-03T05:57:19;102663.22;;;4.48;77.18
35806;BME280;21925;44.608;11.580;2023-02-03T05:59:45;102656.13;;;4.42;77.14
35806;BME280;21925;44.608;11.580;2023-02-03T06:02:11;102658.09;;;4.20;78.12
35806;BME280;21925;44.608;11.580;2023-02-03T06:04:36;102664.09;;;4.22;78.38
35806;BME280;21925;44.608;11.580;2023-02-03T06:07:02;102675.53;;;4.24;78.17
35806;BME280;21925;44.608;11.580;2023-02-03T06:09:27;102674.16;;;4.22;78.72
35806;BME280;21925;44.608;11.580;2023-02-03T06:11:53;102660.72;;;4.42;78.23
35806;BME280;21925;44.608;11.580;2023-02-03T06:14:19;102652.94;;;4.50;76.94
35806;BME280;21925;44.608;11.580;2023-02-03T06:16:44;102672.50;;;4.52;76.42
35806;BME280;21925;44.608;11.580;2023-02-03T06:19:10;102691.78;;;4.51;76.13
35806;BME280;21925;44.608;11.580;2023-02-03T06:21:35;102654.97;;;4.02;76.94
35806;BME280;21925;44.608;11.580;2023-02-03T06:24:01;102630.97;;;4.20;76.20
35806;BME280;21925;44.608;11.580;2023-02-03T06:26:26;102619.69;;;4.02;76.82
35806;BME280;21925;44.608;11.580;2023-02-03T06:28:55;102621.28;;;3.98;76.10
35806;BME280;21925;44.608;11.580;2023-02-03T06:31:20;102607.47;;;4.04;75.37
35806;BME280;21925;44.608;11.580;2023-02-03T06:33:56;102676.84;;;4.53;75.57
35806;BME280;21925;44.608;11.580;2023-02-03T06:36:22;102649.72;;;4.58;74.98
35806;BME280;21925;44.608;11.580;2023-02-03T06:38:48;102640.50;;;4.59;74.33
35806;BME280;21925;44.608;11.580;2023-02-03T06:41:13;102629.00;;;4.47;74.32
35806;BME280;21925;44.608;11.580;2023-02-03T06:43:39;102633.16;;;4.23;75.57
35806;BME280;21925;44.608;11.580;2023-02-03T06:46:05;102668.81;;;4.00;76.65
35806;BME280;21925;44.608;11.580;2023-02-03T06:48:30;102642.25;;;2.86;82.02
35806;BME280;21925;44.608;11.580;2023-02-03T06:50:56;102660.91;;;2.66;86.28
35806;BME280;21925;44.608;11.580;2023-02-03T06:53:22;102651.66;;;2.83;88.02
35806;BME280;21925;44.608;11.580;2023-02-03T06:55:47;102619.63;;;3.18;86.56
35806;BME280;21925;44.608;11.580;2023-02-03T06:58:13;102647.50;;;3.61;84.02
35806;BME280;21925;44.608;11.580;2023-02-03T07:00:39;102631.84;;;3.42;83.58
35806;BME280;21925;44.608;11.580;2023-02-03T07:03:04;102634.09;;;3.07;84.39
35806;BME280;21925;44.608;11.580;2023-02-03T07:05:30;102661.38;;;2.79;86.42
35806;BME280;21925;44.608;11.580;2023-02-03T07:07:56;102679.06;;;2.00;91.45
35806;BME280;21925;44.608;11.580;2023-02-03T07:10:21;102681.09;;;1.65;96.68
35806;BME280;21925;44.608;11.580;2023-02-03T07:12:47;102691.72;;;1.83;98.80
35806;BME280;21925;44.608;11.580;2023-02-03T07:15:15;102677.66;;;1.97;98.82
35806;BME280;21925;44.608;11.580;2023-02-03T07:17:41;102661.84;;;2.06;98.69
35806;BME280;21925;44.608;11.580;2023-02-03T07:20:07;102682.94;;;1.76;100.00
35806;BME280;21925;44.608;11.580;2023-02-03T07:22:33;102705.72;;;1.80;100.00
35806;BME280;21925;44.608;11.580;2023-02-03T07:25:00;102683.06;;;1.69;100.00
35806;BME280;21925;44.608;11.580;2023-02-03T07:27:26;102695.88;;;1.35;100.00
35806;BME280;21925;44.608;11.580;2023-02-03T07:29:52;102700.47;;;1.34;100.00
35806;BME280;21925;44.608;11.580;2023-02-03T07:32:18;102710.75;;;1.60;100.00
35806;BME280;21925;44.608;11.580;2023-02-03T07:34:43;102712.91;;;2.02;100.00
35806;BME280;21925;44.608;11.580;2023-02-03T07:37:09;102709.28;;;1.97;100.00
35806;BME280;21925;44.608;11.580;2023-02-03T07:39:34;102689.22;;;1.93;100.00
35806;BME280;21925;44.608;11.580;2023-02-03T07:42:00;102718.84;;;1.88;100.00
35806;BME280;21925;44.608;11.580;2023-02-03T07:44:27;102737.34;;;2.07;100.00
35806;BME280;21925;44.608;11.580;2023-02-03T07:46:52;102725.91;;;2.17;100.00
35806;BME280;21925;44.608;11.580;2023-02-03T07:49:18;102745.50;;;2.40;100.00
35806;BME280;21925;44.608;11.580;2023-02-03T07:51:44;102747.16;;;2.25;100.00
35806;BME280;21925;44.608;11.580;2023-02-03T07:54:09;102768.91;;;2.46;100.00
35806;BME280;21925;44.608;11.580;2023-02-03T07:56:35;102789.25;;;2.48;100.00
35806;BME280;21925;44.608;11.580;2023-02-03T07:59:01;102808.31;;;2.86;100.00
35806;BME280;21925;44.608;11.580;2023-02-03T08:01:27;102774.25;;;2.90;100.00
35806;BME280;21925;44.608;11.580;2023-02-03T08:03:52;102807.16;;;3.53;100.00
35806;BME280;21925;44.608;11.580;2023-02-03T08:06:18;102807.72;;;3.76;99.52
35806;BME280;21925;44.608;11.580;2023-02-03T08:08:43;102795.16;;;4.13;94.47
35806;BME280;21925;44.608;11.580;2023-02-03T08:11:09;102778.41;;;4.21;95.84
35806;BME280;21925;44.608;11.580;2023-02-03T08:13:35;102774.97;;;4.30;92.94
35806;BME280;21925;44.608;11.580;2023-02-03T08:16:01;102759.84;;;4.13;100.00
35806;BME280;21925;44.608;11.580;2023-02-03T08:18:26;102768.72;;;4.61;96.09
35806;BME280;21925;44.608;11.580;2023-02-03T08:20:52;102777.03;;;4.76;93.88
35806;BME280;21925;44.608;11.580;2023-02-03T08:23:17;102781.53;;;4.97;91.02
35806;BME280;21925;44.608;11.580;2023-02-03T08:25:43;102817.28;;;4.26;100.00
35806;BME280;21925;44.608;11.580;2023-02-03T08:28:09;102817.66;;;4.13;100.00
35806;BME280;21925;44.608;11.580;2023-02-03T08:30:34;102792.94;;;4.10;100.00
35806;BME280;21925;44.608;11.580;2023-02-03T08:33:00;102815.78;;;4.14;100.00
35806;BME280;21925;44.608;11.580;2023-02-03T08:35:26;102831.78;;;4.37;100.00
35806;BME280;21925;44.608;11.580;2023-02-03T08:37:52;102817.09;;;4.59;100.00
35806;BME280;21925;44.608;11.580;2023-02-03T08:40:18;102828.91;;;4.74;100.00
35806;BME280;21925;44.608;11.580;2023-02-03T08:42:44;102829.03;;;4.89;100.00
35806;BME280;21925;44.608;11.580;2023-02-03T08:45:10;102817.53;;;5.14;100.00
35806;BME280;21925;44.608;11.580;2023-02-03T08:47:35;102808.72;;;5.38;100.00
35806;BME280;21925;44.608;11.580;2023-02-03T08:50:03;102769.78;;;5.28;100.00
35806;BME280;21925;44.608;11.580;2023-02-03T08:52:29;102794.13;;;5.54;100.00
35806;BME280;21925;44.608;11.580;2023-02-03T08:54:54;102812.44;;;5.68;100.00
35806;BME280;21925;44.608;11.580;2023-02-03T08:57:20;102800.78;;;5.78;100.00
35806;BME280;21925;44.608;11.580;2023-02-03T08:59:46;102798.38;;;5.81;100.00
35806;BME280;21925;44.608;11.580;2023-02-03T09:02:16;102806.06;;;5.99;100.00
35806;BME280;21925;44.608;11.580;2023-02-03T09:04:43;102804.47;;;6.03;100.00
35806;BME280;21925;44.608;11.580;2023-02-03T09:07:08;102792.44;;;5.89;100.00
35806;BME280;21925;44.608;11.580;2023-02-03T09:09:34;102788.50;;;5.75;100.00
35806;BME280;21925;44.608;11.580;2023-02-03T09:11:59;102751.84;;;5.32;100.00
35806;BME280;21925;44.608;11.580;2023-02-03T09:14:32;102791.03;;;5.87;100.00
35806;BME280;21925;44.608;11.580;2023-02-03T09:17:00;102775.63;;;6.12;100.00
35806;BME280;21925;44.608;11.580;2023-02-03T09:19:27;102774.13;;;5.80;100.00
35806;BME280;21925;44.608;11.580;2023-02-03T09:21:53;102787.00;;;5.94;100.00
35806;BME280;21925;44.608;11.580;2023-02-03T09:24:19;102799.47;;;5.80;100.00
35806;BME280;21925;44.608;11.580;2023-02-03T09:26:44;102790.06;;;6.23;100.00
35806;BME280;21925;44.608;11.580;2023-02-03T09:29:10;102780.84;;;6.43;100.00
35806;BME280;21925;44.608;11.580;2023-02-03T09:31:35;102770.25;;;6.62;100.00
35806;BME280;21925;44.608;11.580;2023-02-03T09:34:01;102762.31;;;6.45;100.00
35806;BME280;21925;44.608;11.580;2023-02-03T09:36:27;102743.78;;;6.42;100.00
35806;BME280;21925;44.608;11.580;2023-02-03T09:38:52;102768.34;;;6.87;100.00
35806;BME280;21925;44.608;11.580;2023-02-03T09:41:29;102784.97;;;6.76;100.00
35806;BME280;21925;44.608;11.580;2023-02-03T09:46:41;102789.06;;;6.78;100.00
35806;BME280;21925;44.608;11.580;2023-02-03T09:49:24;102790.13;;;6.62;100.00
35806;BME280;21925;44.608;11.580;2023-02-03T09:51:54;102802.91;;;6.37;100.00
35806;BME280;21925;44.608;11.580;2023-02-03T09:57:13;102813.78;;;6.32;100.00
35806;BME280;21925;44.608;11.580;2023-02-03T09:59:42;102805.06;;;6.30;100.00
35806;BME280;21925;44.608;11.580;2023-02-03T10:10:03;102820.91;;;6.48;100.00
35806;BME280;21925;44.608;11.580;2023-02-03T10:17:52;102843.59;;;7.18;100.00
35806;BME280;21925;44.608;11.580;2023-02-03T10:20:25;102835.91;;;7.55;100.00
35806;BME280;21925;44.608;11.580;2023-02-03T10:22:57;102823.41;;;7.29;100.00
35806;BME280;21925;44.608;11.580;2023-02-03T10:25:51;102812.97;;;7.51;100.00
35806;BME280;21925;44.608;11.580;2023-02-03T10:28:29;102797.88;;;7.83;100.00
35806;BME280;21925;44.608;11.580;2023-02-03T10:31:00;102797.19;;;8.06;100.00
35806;BME280;21925;44.608;11.580;2023-02-03T10:33:29;102793.50;;;7.82;100.00
35806;BME280;21925;44.608;11.580;2023-02-03T10:41:33;102785.59;;;8.72;100.00
35806;BME280;21925;44.608;11.580;2023-02-03T10:44:01;102776.84;;;9.03;100.00
35806;BME280;21925;44.608;11.580;2023-02-03T10:46:32;102782.44;;;8.88;100.00
35806;BME280;21925;44.608;11.580;2023-02-03T10:48:59;102773.56;;;9.01;100.00
35806;BME280;21925;44.608;11.580;2023-02-03T10:51:33;102781.63;;;9.16;100.00
35806;BME280;21925;44.608;11.580;2023-02-03T10:54:00;102758.06;;;9.20;100.00
35806;BME280;21925;44.608;11.580;2023-02-03T10:56:34;102743.44;;;9.53;100.00
35806;BME280;21925;44.608;11.580;2023-02-03T10:59:01;102749.63;;;9.40;100.00
35806;BME280;21925;44.608;11.580;2023-02-03T11:01:46;102744.03;;;9.50;100.00
35806;BME280;21925;44.608;11.580;2023-02-03T11:04:41;102742.13;;;9.92;100.00
35806;BME280;21925;44.608;11.580;2023-02-03T11:07:25;102743.44;;;10.00;100.00
35806;BME280;21925;44.608;11.580;2023-02-03T11:09:51;102759.44;;;10.30;100.00
35806;BME280;21925;44.608;11.580;2023-02-03T11:12:18;102746.25;;;10.32;100.00
35806;BME280;21925;44.608;11.580;2023-02-03T11:14:49;102752.25;;;10.15;100.00
35806;BME280;21925;44.608;11.580;2023-02-03T11:17:26;102743.34;;;10.23;100.00
35806;BME280;21925;44.608;11.580;2023-02-03T11:20:04;102751.09;;;10.21;100.00
35806;BME280;21925;44.608;11.580;2023-02-03T11:22:38;102741.56;;;10.50;100.00
35806;BME280;21925;44.608;11.580;2023-02-03T11:25:15;102734.28;;;10.59;100.00
35806;BME280;21925;44.608;11.580;2023-02-03T11:27:42;102707.41;;;10.75;100.00
35806;BME280;21925;44.608;11.580;2023-02-03T11:32:41;102688.97;;;11.34;100.00
35806;BME280;21925;44.608;11.580;2023-02-03T11:35:20;102696.13;;;11.62;100.00
35806;BME280;21925;44.608;11.580;2023-02-03T11:37:51;102696.03;;;11.53;100.00
35806;BME280;21925;44.608;11.580;2023-02-03T11:45:24;102698.44;;;11.28;100.00
35806;BME280;21925;44.608;11.580;2023-02-03T11:47:58;102686.75;;;11.36;100.00
35806;BME280;21925;44.608;11.580;2023-02-03T11:50:34;102670.66;;;11.43;100.00
35806;BME280;21925;44.608;11.580;2023-02-03T11:56:09;102691.94;;;11.51;100.00
35806;BME280;21925;44.608;11.580;2023-02-03T12:05:03;102690.97;;;11.95;100.00
35806;BME280;21925;44.608;11.580;2023-02-03T12:10:33;102666.38;;;12.12;100.00
35806;BME280;21925;44.608;11.580;2023-02-03T12:13:25;102644.03;;;12.27;100.00
35806;BME280;21925;44.608;11.580;2023-02-03T12:16:06;102632.13;;;12.40;100.00
35806;BME280;21925;44.608;11.580;2023-02-03T12:18:55;102622.78;;;11.84;100.00
35806;BME280;21925;44.608;11.580;2023-02-03T12:21:38;102623.56;;;12.42;100.00
35806;BME280;21925;44.608;11.580;2023-02-03T12:29:38;102608.59;;;12.56;100.00
35806;BME280;21925;44.608;11.580;2023-02-03T12:35:04;102592.41;;;12.55;100.00
35806;BME280;21925;44.608;11.580;2023-02-03T12:37:49;102580.72;;;12.79;100.00
35806;BME280;21925;44.608;11.580;2023-02-03T12:40:36;102576.16;;;13.22;99.39
35806;BME280;21925;44.608;11.580;2023-02-03T12:45:53;102565.03;;;13.61;99.92
35806;BME280;21925;44.608;11.580;2023-02-03T12:48:54;102561.44;;;13.18;97.48
35806;BME280;21925;44.608;11.580;2023-02-03T12:51:39;102573.19;;;13.02;98.92
35806;BME280;21925;44.608;11.580;2023-02-03T12:54:30;102559.31;;;13.07;99.85
35806;BME280;21925;44.608;11.580;2023-02-03T12:57:14;102536.03;;;13.63;98.35
35806;BME280;21925;44.608;11.580;2023-02-03T12:59:43;102536.19;;;13.58;93.01
35806;BME280;21925;44.608;11.580;2023-02-03T13:02:19;102534.91;;;14.52;96.07
35806;BME280;21925;44.608;11.580;2023-02-03T13:04:51;102531.66;;;13.62;90.22
35806;BME280;21925;44.608;11.580;2023-02-03T13:08:40;102522.50;;;13.03;94.78
35806;BME280;21925;44.608;11.580;2023-02-03T13:10:52;102513.81;;;13.43;93.15
35806;BME280;21925;44.608;11.580;2023-02-03T13:13:28;102495.00;;;13.79;91.90
35806;BME280;21925;44.608;11.580;2023-02-03T13:15:59;102499.41;;;13.54;88.14
35806;BME280;21925;44.608;11.580;2023-02-03T13:18:36;102512.69;;;13.52;87.61
35806;BME280;21925;44.608;11.580;2023-02-03T13:21:02;102518.31;;;13.22;87.62
35806;BME280;21925;44.608;11.580;2023-02-03T13:23:28;102494.81;;;13.25;89.31
35806;BME280;21925;44.608;11.580;2023-02-03T13:31:28;102457.38;;;13.57;88.46
35806;BME280;21925;44.608;11.580;2023-02-03T13:42:39;102448.22;;;13.99;83.32
35806;BME280;21925;44.608;11.580;2023-02-03T13:47:54;102444.06;;;14.39;81.07
35806;BME280;21925;44.608;11.580;2023-02-03T13:50:23;102444.00;;;14.02;79.99
35806;BME280;21925;44.608;11.580;2023-02-03T13:53:00;102451.09;;;14.28;80.33
35806;BME280;21925;44.608;11.580;2023-02-03T13:57:55;102453.50;;;13.67;82.68
35806;BME280;21925;44.608;11.580;2023-02-03T14:06:04;102462.91;;;13.66;84.47
35806;BME280;21925;44.608;11.580;2023-02-03T14:16:34;102446.53;;;13.52;85.43
35806;BME280;21925;44.608;11.580;2023-02-03T14:19:00;102439.69;;;13.84;83.30
35806;BME280;21925;44.608;11.580;2023-02-03T14:21:27;102432.00;;;14.15;81.14
35806;BME280;21925;44.608;11.580;2023-02-03T14:24:02;102443.28;;;13.76;80.33
35806;BME280;21925;44.608;11.580;2023-02-03T14:26:42;102452.91;;;14.07;81.58
35806;BME280;21925;44.608;11.580;2023-02-03T14:29:22;102459.44;;;13.94;78.97
35806;BME280;21925;44.608;11.580;2023-02-03T14:32:06;102469.78;;;14.14;78.46
35806;BME280;21925;44.608;11.580;2023-02-03T14:47:37;102449.06;;;13.91;77.35
35806;BME280;21925;44.608;11.580;2023-02-03T14:52:57;102445.81;;;13.89;77.91
35806;BME280;21925;44.608;11.580;2023-02-03T14:55:41;102447.13;;;13.83;78.08
35806;BME280;21925;44.608;11.580;2023-02-03T14:58:35;102430.25;;;13.93;77.96
35806;BME280;21925;44.608;11.580;2023-02-03T15:01:06;102420.63;;;14.08;77.43
35806;BME280;21925;44.608;11.580;2023-02-03T15:03:32;102422.47;;;13.95;77.53
35806;BME280;21925;44.608;11.580;2023-02-03T15:06:02;102422.16;;;13.88;78.60
35806;BME280;21925;44.608;11.580;2023-02-03T15:13:39;102408.31;;;14.05;78.51
35806;BME280;21925;44.608;11.580;2023-02-03T15:16:13;102427.94;;;14.04;78.27
35806;BME280;21925;44.608;11.580;2023-02-03T15:18:40;102418.88;;;14.03;78.03